Coral Electra — PCAG — position and weather

sailwx.info

Track history (hours):
 
Tides and Currents Weather Stations Pressure Air Temp Water Temp Dewpoint Dewpoint Depression Visibility Wind Speed Wind Dir Waves Ship Positions

Coral Electra

Last reported at 2014-Sep-15 02:33 UTC. Time now 2014-Sep-15 04:07 UTC.
Position N 53°28' E 006°48'.

Length 14 m; draft 2 m.

Type: Port tender. MMSI: 244690019.

Date/timePositionNaut miles runAvg speedWind from/ knotsBaromVisibWave heightAir tempDewpointWater temp
2014-Sep-15 02:33N 53°28' E 006°48'2 1.4
2014-Sep-15 01:15N 53°27' E 006°50'0 0.0
2014-Sep-15 00:33N 53°27' E 006°50'0 0.0
2014-Sep-14 21:33N 53°27' E 006°50'0 0.0
2014-Sep-14 20:33N 53°27' E 006°50'6 0.6
2014-Sep-14 11:27N 53°30' E 006°42'6 5.6
2014-Sep-14 10:27N 53°27' E 006°49'8 3.9
2014-Sep-14 08:25N 53°32' E 006°40'8 8.9
2014-Sep-14 07:32N 53°27' E 006°49'0 0.2
2014-Sep-14 06:33N 53°27' E 006°49'6 2.8
2014-Sep-14 04:17N 53°32' E 006°44'6 7.7
2014-Sep-14 03:27N 53°27' E 006°50'0 0.0
2014-Sep-14 02:21N 53°27' E 006°50'0 0.0
2014-Sep-14 01:33N 53°27' E 006°50'0 0.0
2014-Sep-13 18:19N 53°27' E 006°50'6 3.4
2014-Sep-13 16:28N 53°32' E 006°44'6 1.5
2014-Sep-13 12:20N 53°27' E 006°50'0 0.3
2014-Sep-13 11:24N 53°27' E 006°49'7 2.2
2014-Sep-13 08:14N 53°32' E 006°41'5 7.2
2014-Sep-13 07:31N 53°29' E 006°48'2 2.1
2014-Sep-13 06:25N 53°27' E 006°49'6 2.8
2014-Sep-13 04:12N 53°32' E 006°44'6 8.8
2014-Sep-13 03:29N 53°27' E 006°50'0 0.0
2014-Sep-13 02:29N 53°27' E 006°50'0 0.0
2014-Sep-13 01:23N 53°27' E 006°50'0 0.0
2014-Sep-13 00:29N 53°27' E 006°50'0 0.0
2014-Sep-12 23:32N 53°27' E 006°50'0 0.0
2014-Sep-12 22:32N 53°27' E 006°50'1 0.6
2014-Sep-12 21:33N 53°27' E 006°50'8 6.6
2014-Sep-12 20:16N 53°33' E 006°40'7 9.1
2014-Sep-12 19:33N 53°29' E 006°49'2 0.6
2014-Sep-12 15:33N 53°30' E 006°45'4 0.2
2014-Sep-11 11:31N 53°27' E 006°50'0 0.0
2014-Sep-11 10:22N 53°27' E 006°50'0 0.0
2014-Sep-11 09:25N 53°27' E 006°50'0 0.0
2014-Sep-11 08:31N 53°27' E 006°50'0 0.3
2014-Sep-11 07:32N 53°27' E 006°49'4 3.7
2014-Sep-11 06:30N 53°29' E 006°44'4 4.1
2014-Sep-11 05:31N 53°27' E 006°50'0 0.0
2014-Sep-11 04:19N 53°27' E 006°50'0 0.0
2014-Sep-11 03:25N 53°27' E 006°50'0 0.0
2014-Sep-11 02:25N 53°27' E 006°50'0 0.0
2014-Sep-11 00:22N 53°27' E 006°50'0 0.0
2014-Sep-10 23:13N 53°27' E 006°50'0 0.0
2014-Sep-10 22:22N 53°27' E 006°50'0 0.0
2014-Sep-10 21:22N 53°27' E 006°50'0 0.0
2014-Sep-10 20:19N 53°27' E 006°50'0 0.0
2014-Sep-10 19:31N 53°27' E 006°50'0 0.0
2014-Sep-10 14:19N 53°27' E 006°50'0 0.0
2014-Sep-10 13:13N 53°27' E 006°50'0 0.0
2014-Sep-10 12:28N 53°27' E 006°50'0 0.0
2014-Sep-10 11:31N 53°27' E 006°50'0 0.0
2014-Sep-10 10:28N 53°27' E 006°50'0 0.1
2014-Sep-10 09:32N 53°27' E 006°50'0 0.1
2014-Sep-10 08:32N 53°27' E 006°50'4 3.9
2014-Sep-10 07:32N 53°29' E 006°44'4 4.0
2014-Sep-10 06:33N 53°27' E 006°50'0 0.1
2014-Sep-10 05:25N 53°27' E 006°50'0 0.0
2014-Sep-10 04:10N 53°27' E 006°50'0 0.0
2014-Sep-10 03:28N 53°27' E 006°50'0 0.0
2014-Sep-10 02:13N 53°27' E 006°50'0 0.0
2014-Sep-10 00:31N 53°27' E 006°50'0 0.0
2014-Sep-09 23:22N 53°27' E 006°50'0 0.0
2014-Sep-09 22:31N 53°27' E 006°50'0 0.0
2014-Sep-09 21:16N 53°27' E 006°50'0 0.0
2014-Sep-09 20:31N 53°27' E 006°50'0 0.0
2014-Sep-09 19:22N 53°27' E 006°50'0 0.0
2014-Sep-09 18:31N 53°27' E 006°50'5 5.1
2014-Sep-09 17:30N 53°31' E 006°45'5 5.4
2014-Sep-09 16:33N 53°27' E 006°50'0 0.1
2014-Sep-09 15:32N 53°27' E 006°50'7 5.8
2014-Sep-09 14:15N 53°34' E 006°45'710.2
2014-Sep-09 13:32N 53°27' E 006°50'0 0.0
2014-Sep-09 12:28N 53°27' E 006°50'0 0.0
2014-Sep-09 11:28N 53°27' E 006°50'1 0.9
2014-Sep-09 10:32N 53°27' E 006°50'5 5.5
2014-Sep-09 09:32N 53°30' E 006°42'5 5.2
2014-Sep-09 08:31N 53°27' E 006°49'0 0.0
2014-Sep-09 07:31N 53°27' E 006°49'3 1.4
2014-Sep-09 05:29N 53°29' E 006°46'3 3.4
2014-Sep-09 04:33N 53°27' E 006°50'0 0.0
2014-Sep-09 03:30N 53°27' E 006°50'0 0.0
2014-Sep-09 02:24N 53°27' E 006°50'0 0.0
2014-Sep-09 01:15N 53°27' E 006°50'0 0.0
2014-Sep-09 00:33N 53°27' E 006°50'0 0.0
2014-Sep-08 23:24N 53°27' E 006°50'0 0.0
2014-Sep-08 22:30N 53°27' E 006°50'0 0.0
2014-Sep-08 21:30N 53°27' E 006°50'0 0.0
2014-Sep-08 20:27N 53°27' E 006°50'0 0.0
2014-Sep-08 19:27N 53°27' E 006°50'0 0.0
2014-Sep-08 18:33N 53°27' E 006°50'4 2.8
2014-Sep-08 17:06N 53°31' E 006°48'4 5.3
2014-Sep-08 16:21N 53°27' E 006°50'0 0.0
2014-Sep-08 15:33N 53°27' E 006°50'4 3.9
2014-Sep-08 14:29N 53°29' E 006°44'4 4.2
2014-Sep-08 13:30N 53°27' E 006°50'0 0.0
2014-Sep-08 10:32N 53°27' E 006°50'0 0.3
2014-Sep-08 09:32N 53°27' E 006°49'3 2.3
2014-Sep-08 08:13N 53°29' E 006°45'3 4.2
2014-Sep-08 07:29N 53°27' E 006°49'1 1.0
2014-Sep-08 06:33N 53°28' E 006°50'3 1.3
2014-Sep-08 04:06N 53°29' E 006°46'3 3.9
2014-Sep-08 03:16N 53°27' E 006°50'0 0.0
2014-Sep-08 01:16N 53°27' E 006°50'0 0.0
2014-Sep-08 00:19N 53°27' E 006°50'0 0.0
2014-Sep-07 23:10N 53°27' E 006°50'0 0.0
2014-Sep-07 22:13N 53°27' E 006°50'0 0.0
2014-Sep-07 21:19N 53°27' E 006°50'0 0.0
2014-Sep-07 20:31N 53°27' E 006°50'0 0.0
2014-Sep-07 19:19N 53°27' E 006°50'2 0.3
2014-Sep-07 13:33N 53°29' E 006°50'2 1.8
2014-Sep-07 12:32N 53°27' E 006°49'0 0.1
2014-Sep-07 10:32N 53°27' E 006°50'5 2.2
2014-Sep-07 08:04N 53°30' E 006°43'5 9.8
2014-Sep-07 07:33N 53°27' E 006°49'0 0.0
2014-Sep-07 04:33N 53°27' E 006°49'0 0.2
2014-Sep-07 03:32N 53°27' E 006°50'0 0.0
2014-Sep-07 02:32N 53°27' E 006°50'0 0.0
2014-Sep-07 01:32N 53°27' E 006°50'0 0.0
2014-Sep-07 00:32N 53°27' E 006°50'0 0.0
2014-Sep-06 23:17N 53°27' E 006°50'0 0.0
2014-Sep-06 22:29N 53°27' E 006°50'2 0.2
2014-Sep-06 10:19N 53°28' E 006°47'2 2.4
2014-Sep-06 09:31N 53°27' E 006°49'0 0.0
2014-Sep-06 06:30N 53°27' E 006°49'0 0.0
2014-Sep-06 04:33N 53°27' E 006°49'0 0.1
2014-Sep-06 01:15N 53°27' E 006°50'0 0.0
2014-Sep-06 00:30N 53°27' E 006°50'0 0.0
2014-Sep-05 21:24N 53°27' E 006°50'0 0.0
2014-Sep-05 20:33N 53°27' E 006°50'0 0.0
2014-Sep-05 18:15N 53°27' E 006°50'4 0.9
2014-Sep-05 14:09N 53°29' E 006°45'6 1.5
2014-Sep-05 10:21N 53°33' E 006°38'9 9.9
2014-Sep-05 09:26N 53°27' E 006°49'6 2.2
2014-Sep-05 06:33N 53°31' E 006°41'6 3.1
2014-Sep-05 04:32N 53°27' E 006°49'0 0.2
2014-Sep-05 03:21N 53°27' E 006°50'  
Track history (hours):
 
Tides and Currents Weather Stations Pressure Air Temp Water Temp Dewpoint Dewpoint Depression Visibility Wind Speed Wind Dir Waves Ship Positions

Coral Electra

Last reported at 2014-Sep-15 02:33 UTC. Time now 2014-Sep-15 04:07 UTC.
Position N 53°28' E 006°48'.

Length 14 m; draft 2 m.

Type: Port tender. MMSI: 244690019.

Date/timePositionNaut miles runAvg speedWind from/ knotsBaromVisibWave heightAir tempDewpointWater temp
2014-Sep-15 02:33N 53°28' E 006°48'2 1.4
2014-Sep-15 01:15N 53°27' E 006°50'0 0.0
2014-Sep-15 00:33N 53°27' E 006°50'0 0.0
2014-Sep-14 21:33N 53°27' E 006°50'0 0.0
2014-Sep-14 20:33N 53°27' E 006°50'6 0.6
2014-Sep-14 11:27N 53°30' E 006°42'6 5.6
2014-Sep-14 10:27N 53°27' E 006°49'8 3.9
2014-Sep-14 08:25N 53°32' E 006°40'8 8.9
2014-Sep-14 07:32N 53°27' E 006°49'0 0.2
2014-Sep-14 06:33N 53°27' E 006°49'6 2.8
2014-Sep-14 04:17N 53°32' E 006°44'6 7.7
2014-Sep-14 03:27N 53°27' E 006°50'0 0.0
2014-Sep-14 02:21N 53°27' E 006°50'0 0.0
2014-Sep-14 01:33N 53°27' E 006°50'0 0.0
2014-Sep-13 18:19N 53°27' E 006°50'6 3.4
2014-Sep-13 16:28N 53°32' E 006°44'6 1.5
2014-Sep-13 12:20N 53°27' E 006°50'0 0.3
2014-Sep-13 11:24N 53°27' E 006°49'7 2.2
2014-Sep-13 08:14N 53°32' E 006°41'5 7.2
2014-Sep-13 07:31N 53°29' E 006°48'2 2.1
2014-Sep-13 06:25N 53°27' E 006°49'6 2.8
2014-Sep-13 04:12N 53°32' E 006°44'6 8.8
2014-Sep-13 03:29N 53°27' E 006°50'0 0.0
2014-Sep-13 02:29N 53°27' E 006°50'0 0.0
2014-Sep-13 01:23N 53°27' E 006°50'0 0.0
2014-Sep-13 00:29N 53°27' E 006°50'0 0.0
2014-Sep-12 23:32N 53°27' E 006°50'0 0.0
2014-Sep-12 22:32N 53°27' E 006°50'1 0.6
2014-Sep-12 21:33N 53°27' E 006°50'8 6.6
2014-Sep-12 20:16N 53°33' E 006°40'7 9.1
2014-Sep-12 19:33N 53°29' E 006°49'2 0.6
2014-Sep-12 15:33N 53°30' E 006°45'4 0.2
2014-Sep-11 11:31N 53°27' E 006°50'0 0.0
2014-Sep-11 10:22N 53°27' E 006°50'0 0.0
2014-Sep-11 09:25N 53°27' E 006°50'0 0.0
2014-Sep-11 08:31N 53°27' E 006°50'0 0.3
2014-Sep-11 07:32N 53°27' E 006°49'4 3.7
2014-Sep-11 06:30N 53°29' E 006°44'4 4.1
2014-Sep-11 05:31N 53°27' E 006°50'0 0.0
2014-Sep-11 04:19N 53°27' E 006°50'0 0.0
2014-Sep-11 03:25N 53°27' E 006°50'0 0.0
2014-Sep-11 02:25N 53°27' E 006°50'0 0.0
2014-Sep-11 00:22N 53°27' E 006°50'0 0.0
2014-Sep-10 23:13N 53°27' E 006°50'0 0.0
2014-Sep-10 22:22N 53°27' E 006°50'0 0.0
2014-Sep-10 21:22N 53°27' E 006°50'0 0.0
2014-Sep-10 20:19N 53°27' E 006°50'0 0.0
2014-Sep-10 19:31N 53°27' E 006°50'0 0.0
2014-Sep-10 14:19N 53°27' E 006°50'0 0.0
2014-Sep-10 13:13N 53°27' E 006°50'0 0.0
2014-Sep-10 12:28N 53°27' E 006°50'0 0.0
2014-Sep-10 11:31N 53°27' E 006°50'0 0.0
2014-Sep-10 10:28N 53°27' E 006°50'0 0.1
2014-Sep-10 09:32N 53°27' E 006°50'0 0.1
2014-Sep-10 08:32N 53°27' E 006°50'4 3.9
2014-Sep-10 07:32N 53°29' E 006°44'4 4.0
2014-Sep-10 06:33N 53°27' E 006°50'0 0.1
2014-Sep-10 05:25N 53°27' E 006°50'0 0.0
2014-Sep-10 04:10N 53°27' E 006°50'0 0.0
2014-Sep-10 03:28N 53°27' E 006°50'0 0.0
2014-Sep-10 02:13N 53°27' E 006°50'0 0.0
2014-Sep-10 00:31N 53°27' E 006°50'0 0.0
2014-Sep-09 23:22N 53°27' E 006°50'0 0.0
2014-Sep-09 22:31N 53°27' E 006°50'0 0.0
2014-Sep-09 21:16N 53°27' E 006°50'0 0.0
2014-Sep-09 20:31N 53°27' E 006°50'0 0.0
2014-Sep-09 19:22N 53°27' E 006°50'0 0.0
2014-Sep-09 18:31N 53°27' E 006°50'5 5.1
2014-Sep-09 17:30N 53°31' E 006°45'5 5.4
2014-Sep-09 16:33N 53°27' E 006°50'0 0.1
2014-Sep-09 15:32N 53°27' E 006°50'7 5.8
2014-Sep-09 14:15N 53°34' E 006°45'710.2
2014-Sep-09 13:32N 53°27' E 006°50'0 0.0
2014-Sep-09 12:28N 53°27' E 006°50'0 0.0
2014-Sep-09 11:28N 53°27' E 006°50'1 0.9
2014-Sep-09 10:32N 53°27' E 006°50'5 5.5
2014-Sep-09 09:32N 53°30' E 006°42'5 5.2
2014-Sep-09 08:31N 53°27' E 006°49'0 0.0
2014-Sep-09 07:31N 53°27' E 006°49'3 1.4
2014-Sep-09 05:29N 53°29' E 006°46'3 3.4
2014-Sep-09 04:33N 53°27' E 006°50'0 0.0
2014-Sep-09 03:30N 53°27' E 006°50'0 0.0
2014-Sep-09 02:24N 53°27' E 006°50'0 0.0
2014-Sep-09 01:15N 53°27' E 006°50'0 0.0
2014-Sep-09 00:33N 53°27' E 006°50'0 0.0
2014-Sep-08 23:24N 53°27' E 006°50'0 0.0
2014-Sep-08 22:30N 53°27' E 006°50'0 0.0
2014-Sep-08 21:30N 53°27' E 006°50'0 0.0
2014-Sep-08 20:27N 53°27' E 006°50'0 0.0
2014-Sep-08 19:27N 53°27' E 006°50'0 0.0
2014-Sep-08 18:33N 53°27' E 006°50'4 2.8
2014-Sep-08 17:06N 53°31' E 006°48'4 5.3
2014-Sep-08 16:21N 53°27' E 006°50'0 0.0
2014-Sep-08 15:33N 53°27' E 006°50'4 3.9
2014-Sep-08 14:29N 53°29' E 006°44'4 4.2
2014-Sep-08 13:30N 53°27' E 006°50'0 0.0
2014-Sep-08 10:32N 53°27' E 006°50'0 0.3
2014-Sep-08 09:32N 53°27' E 006°49'3 2.3
2014-Sep-08 08:13N 53°29' E 006°45'3 4.2
2014-Sep-08 07:29N 53°27' E 006°49'1 1.0
2014-Sep-08 06:33N 53°28' E 006°50'3 1.3
2014-Sep-08 04:06N 53°29' E 006°46'3 3.9
2014-Sep-08 03:16N 53°27' E 006°50'0 0.0
2014-Sep-08 01:16N 53°27' E 006°50'0 0.0
2014-Sep-08 00:19N 53°27' E 006°50'0 0.0
2014-Sep-07 23:10N 53°27' E 006°50'0 0.0
2014-Sep-07 22:13N 53°27' E 006°50'0 0.0
2014-Sep-07 21:19N 53°27' E 006°50'0 0.0
2014-Sep-07 20:31N 53°27' E 006°50'0 0.0
2014-Sep-07 19:19N 53°27' E 006°50'2 0.3
2014-Sep-07 13:33N 53°29' E 006°50'2 1.8
2014-Sep-07 12:32N 53°27' E 006°49'0 0.1
2014-Sep-07 10:32N 53°27' E 006°50'5 2.2
2014-Sep-07 08:04N 53°30' E 006°43'5 9.8
2014-Sep-07 07:33N 53°27' E 006°49'0 0.0
2014-Sep-07 04:33N 53°27' E 006°49'0 0.2
2014-Sep-07 03:32N 53°27' E 006°50'0 0.0
2014-Sep-07 02:32N 53°27' E 006°50'0 0.0
2014-Sep-07 01:32N 53°27' E 006°50'0 0.0
2014-Sep-07 00:32N 53°27' E 006°50'0 0.0
2014-Sep-06 23:17N 53°27' E 006°50'0 0.0
2014-Sep-06 22:29N 53°27' E 006°50'2 0.2
2014-Sep-06 10:19N 53°28' E 006°47'2 2.4
2014-Sep-06 09:31N 53°27' E 006°49'0 0.0
2014-Sep-06 06:30N 53°27' E 006°49'0 0.0
2014-Sep-06 04:33N 53°27' E 006°49'0 0.1
2014-Sep-06 01:15N 53°27' E 006°50'0 0.0
2014-Sep-06 00:30N 53°27' E 006°50'0 0.0
2014-Sep-05 21:24N 53°27' E 006°50'0 0.0
2014-Sep-05 20:33N 53°27' E 006°50'0 0.0
2014-Sep-05 18:15N 53°27' E 006°50'4 0.9
2014-Sep-05 14:09N 53°29' E 006°45'6 1.5
2014-Sep-05 10:21N 53°33' E 006°38'9 9.9
2014-Sep-05 09:26N 53°27' E 006°49'6 2.2
2014-Sep-05 06:33N 53°31' E 006°41'6 3.1
2014-Sep-05 04:32N 53°27' E 006°49'0 0.2
2014-Sep-05 03:21N 53°27' E 006°50'  

Dump ship's entire track history